Time;durP1;ratioP1;P1;durP2;ratioP2;P2;SDS_P1;SDS_P2;PMS_P1;PMS_P2;Temp;Humidity;BMP_temperature;BMP_pressure;BME280_temperature;BME280_humidity;BME280_pressure;Samples;Min_cycle;Max_cycle;Signal;HPM_P1;HPM_P2
2023/05/27 03:34:55;;;;;;;4.10;3.70;;;;;;;22.12;68.09;99492.27;101619;1296;601399;-59
2023/05/27 03:37:24;;;;;;;4.50;4.10;;;;;;;22.89;60.32;99492.99;103557;1271;61498;-58
2023/05/27 03:40:03;;;;;;;4.40;4.00;;;;;;;22.93;60.25;99494.19;103626;1273;59877;-58
2023/05/27 03:42:31;;;;;;;4.70;4.30;;;;;;;23.00;59.90;99493.21;103894;1276;73414;-59
2023/05/27 03:44:59;;;;;;;5.70;4.40;;;;;;;23.09;59.21;99490.35;103461;1280;69847;-59
2023/05/27 03:47:27;;;;;;;4.80;4.30;;;;;;;23.16;59.13;99493.45;104885;1260;209240;-59
2023/05/27 03:49:55;;;;;;;4.50;4.10;;;;;;;23.21;59.08;99492.08;104460;1254;61524;-59
2023/05/27 03:52:23;;;;;;;5.00;4.50;;;;;;;23.29;58.63;99495.23;104461;1258;59800;-58
2023/05/27 03:54:51;;;;;;;4.50;4.10;;;;;;;23.37;59.08;99497.10;104806;1256;72153;-60
2023/05/27 03:57:18;;;;;;;5.30;4.80;;;;;;;23.46;58.39;99498.70;104465;1272;69490;-59
2023/05/27 03:59:46;;;;;;;5.30;4.50;;;;;;;23.58;57.33;99492.71;104556;1256;73344;-58
2023/05/27 04:02:15;;;;;;;6.70;4.40;;;;;;;23.70;57.42;99492.63;104587;1257;61573;-59
2023/05/27 04:04:42;;;;;;;5.80;4.60;;;;;;;23.80;56.90;99493.23;104458;1256;59826;-59
2023/05/27 04:07:13;;;;;;;4.70;4.30;;;;;;;23.89;57.70;99492.32;104528;1256;73206;-59
2023/05/27 04:09:43;;;;;;;5.10;4.60;;;;;;;24.04;57.39;99494.42;104409;1266;68691;-59
2023/05/27 04:12:10;;;;;;;7.00;4.90;;;;;;;24.18;57.67;99497.11;104357;1257;73316;-60
2023/05/27 04:14:38;;;;;;;5.20;4.80;;;;;;;24.30;57.23;99493.70;104409;1256;61381;-59
2023/05/27 04:17:06;;;;;;;5.00;4.50;;;;;;;24.34;58.39;99494.37;104641;1255;59714;-59
2023/05/27 04:19:36;;;;;;;5.10;4.70;;;;;;;24.44;58.17;99496.75;104370;1267;71830;-59
2023/05/27 04:22:04;;;;;;;8.50;5.40;;;;;;;24.56;58.31;99493.71;104417;1260;69179;-60
2023/05/27 04:24:32;;;;;;;4.70;4.40;;;;;;;24.67;59.07;99494.76;108411;1251;72099;-58
2023/05/27 04:27:02;;;;;;;4.60;4.20;;;;;;;24.83;58.63;99498.46;104730;1254;61387;-59
2023/05/27 04:29:31;;;;;;;4.60;4.20;;;;;;;24.92;60.14;99501.09;105034;1251;59756;-61
2023/05/27 04:32:00;;;;;;;6.50;4.70;;;;;;;25.01;59.84;99499.11;104602;1271;72760;-61
2023/05/27 04:34:28;;;;;;;5.50;4.90;;;;;;;25.10;59.56;99501.57;104580;1257;69567;-61
2023/05/27 04:36:56;;;;;;;4.60;4.20;;;;;;;25.20;58.37;99499.63;104798;1255;72477;-60
2023/05/27 04:39:26;;;;;;;5.40;4.70;;;;;;;25.27;59.83;99496.90;104396;1260;61983;-61
2023/05/27 04:41:56;;;;;;;4.70;4.20;;;;;;;25.36;60.25;99493.80;104263;1257;59845;-60
2023/05/27 04:44:30;;;;;;;5.10;4.70;;;;;;;25.43;59.48;99492.84;104338;1254;73200;-60
2023/05/27 04:47:00;;;;;;;7.50;5.10;;;;;;;25.45;58.35;99495.88;104314;1259;70141;-63
2023/05/27 04:49:28;;;;;;;5.30;4.70;;;;;;;25.47;58.45;99499.48;104365;1254;72902;-61
2023/05/27 04:51:55;;;;;;;4.70;4.40;;;;;;;25.50;59.07;99497.35;104289;1260;61450;-61
2023/05/27 04:54:24;;;;;;;5.20;4.70;;;;;;;25.54;58.43;99501.77;104328;1258;59697;-61
2023/05/27 04:56:52;;;;;;;5.40;4.90;;;;;;;25.64;57.74;99499.41;104385;1267;72797;-61
2023/05/27 04:59:29;;;;;;;5.70;4.60;;;;;;;25.69;57.96;99497.80;104226;1261;69735;-61
2023/05/27 05:02:10;;;;;;;5.10;4.60;;;;;;;25.79;57.74;99496.30;104390;1258;72345;-62
2023/05/27 05:04:47;;;;;;;5.50;5.00;;;;;;;25.88;57.78;99497.73;104370;1268;60607;-61
2023/05/27 05:07:16;;;;;;;8.70;4.70;;;;;;;25.95;57.82;99491.77;104395;1254;59855;-61
2023/05/27 05:09:44;;;;;;;5.30;4.80;;;;;;;26.03;58.46;99484.73;104329;1261;72859;-58
2023/05/27 05:12:17;;;;;;;4.90;4.50;;;;;;;26.14;57.94;99487.16;104357;1261;69115;-61
2023/05/27 05:14:46;;;;;;;6.20;5.20;;;;;;;26.22;57.08;99483.41;104369;1258;72896;-61
2023/05/27 05:17:14;;;;;;;5.60;5.10;;;;;;;26.26;56.43;99487.15;104551;1260;59851;-60
2023/05/27 05:19:43;;;;;;;5.60;5.10;;;;;;;26.28;56.20;99492.77;104339;1254;59825;-60
2023/05/27 05:22:14;;;;;;;5.60;4.90;;;;;;;26.32;55.88;99491.23;104511;1254;73276;-61
2023/05/27 05:24:44;;;;;;;5.40;4.80;;;;;;;26.34;55.45;99492.45;104884;1254;69176;-61
2023/05/27 05:27:12;;;;;;;4.90;4.40;;;;;;;26.35;55.03;99494.29;104459;1268;72944;-59
2023/05/27 05:29:41;;;;;;;11.60;5.30;;;;;;;26.34;54.79;99493.37;104311;1259;59787;-59
2023/05/27 05:32:13;;;;;;;5.50;5.00;;;;;;;26.32;54.33;99493.93;105255;1254;60058;-60
2023/05/27 05:34:41;;;;;;;5.20;4.80;;;;;;;26.33;54.16;99494.37;104637;1258;73327;-59
2023/05/27 05:37:10;;;;;;;5.00;4.60;;;;;;;26.38;54.70;99497.02;104836;1254;69053;-59
2023/05/27 05:39:40;;;;;;;5.80;5.30;;;;;;;26.42;54.19;99495.50;104791;1255;72879;-59
2023/05/27 05:42:08;;;;;;;5.30;4.80;;;;;;;26.46;54.88;99497.27;104310;1254;61761;-59
2023/05/27 05:44:36;;;;;;;;;;;;;;;26.52;54.26;99500.73;104775;1251;60083;-59
2023/05/27 05:47:04;;;;;;;4.70;4.30;;;;;;;26.60;53.80;99503.02;104376;1274;73610;-60
2023/05/27 05:49:32;;;;;;;6.60;5.10;;;;;;;26.60;53.81;99502.02;104396;1272;69110;-59
2023/05/27 05:52:00;;;;;;;8.20;5.30;;;;;;;26.63;53.94;99500.41;104497;1267;72381;-59
2023/05/27 05:54:28;;;;;;;5.80;5.20;;;;;;;26.75;53.79;99505.72;104399;1255;61452;-58
2023/05/27 05:56:57;;;;;;;6.50;5.40;;;;;;;26.85;53.32;99502.62;104676;1254;59676;-59
2023/05/27 05:59:25;;;;;;;7.50;6.10;;;;;;;26.93;52.98;99505.50;104236;1261;73512;-59
2023/05/27 06:01:52;;;;;;;6.20;5.60;;;;;;;27.03;52.60;99509.92;104607;1252;70177;-60
2023/05/27 06:04:21;;;;;;;5.90;5.50;;;;;;;27.11;51.94;99505.42;104314;1264;72298;-59
2023/05/27 06:06:49;;;;;;;6.20;5.60;;;;;;;27.16;51.86;99505.52;105485;1254;61418;-60
2023/05/27 06:09:17;;;;;;;5.90;5.40;;;;;;;27.26;51.96;99505.19;104598;1257;59673;-60
2023/05/27 06:11:45;;;;;;;6.90;5.50;;;;;;;27.32;52.02;99505.95;104607;1254;72878;-59
2023/05/27 06:14:13;;;;;;;;;;;;;;;27.41;51.86;99505.04;104442;1258;69702;-59
2023/05/27 06:16:41;;;;;;;5.30;4.90;;;;;;;27.51;51.25;99505.66;104366;1257;71688;-60
2023/05/27 06:19:09;;;;;;;5.30;4.80;;;;;;;27.57;50.91;99509.16;104512;1251;60183;-59
2023/05/27 06:21:37;;;;;;;6.00;5.00;;;;;;;27.64;51.26;99510.17;104441;1257;60004;-59
2023/05/27 06:24:23;;;;;;;5.20;4.80;;;;;;;27.81;51.45;99516.39;108514;1251;73735;-60
2023/05/27 06:26:56;;;;;;;5.30;4.90;;;;;;;27.94;51.15;99521.00;106426;1254;69478;-58
2023/05/27 06:29:24;;;;;;;6.10;4.80;;;;;;;28.07;50.97;99519.55;104651;1254;71590;-58
2023/05/27 06:31:52;;;;;;;7.00;5.20;;;;;;;28.18;49.68;99524.88;104878;1266;59771;-58
2023/05/27 06:34:20;;;;;;;6.20;5.60;;;;;;;28.29;48.20;99522.88;105036;1254;59609;-58
2023/05/27 06:36:48;;;;;;;7.20;4.80;;;;;;;28.35;47.78;99524.09;104385;1256;72872;-58
2023/05/27 06:39:17;;;;;;;5.50;5.00;;;;;;;28.41;47.64;99525.55;104437;1251;69037;-58
2023/05/27 06:41:44;;;;;;;;;;;;;;;28.49;47.91;99525.33;104301;1261;73358;-58
2023/05/27 06:44:30;;;;;;;5.90;4.80;;;;;;;28.67;48.18;99525.58;104498;1258;60031;-60
2023/05/27 06:47:02;;;;;;;6.00;5.10;;;;;;;28.76;47.85;99526.95;104676;1251;60240;-60
2023/05/27 06:49:30;;;;;;;6.00;5.30;;;;;;;28.82;47.50;99528.28;104575;1261;72883;-60
2023/05/27 06:52:00;;;;;;;5.70;5.20;;;;;;;28.90;47.80;99530.75;104286;1251;69057;-61
2023/05/27 06:54:29;;;;;;;6.00;5.40;;;;;;;28.96;48.16;99535.05;105051;1257;73451;-60
2023/05/27 06:57:06;;;;;;;;;;;;;;;29.08;47.18;99538.58;104523;1254;63195;-60
2023/05/27 06:59:49;;;;;;;5.60;4.90;;;;;;;29.17;46.86;99535.89;104515;1260;59749;-62
2023/05/27 07:02:17;;;;;;;;;;;;;;;29.17;47.40;99537.96;104803;1253;72837;-61
2023/05/27 07:04:45;;;;;;;4.90;4.30;;;;;;;29.21;47.45;99538.18;104365;1270;70056;-61
2023/05/27 07:07:13;;;;;;;5.00;4.50;;;;;;;29.18;46.86;99538.12;104483;1261;72057;-61
2023/05/27 07:09:41;;;;;;;7.30;4.90;;;;;;;29.20;46.48;99539.85;104646;1254;59883;-61
2023/05/27 07:12:09;;;;;;;5.10;4.60;;;;;;;29.25;46.86;99536.48;104622;1251;59887;-61
2023/05/27 07:14:49;;;;;;;5.30;4.80;;;;;;;29.27;46.92;99535.56;104524;1257;72794;-61
2023/05/27 07:17:18;;;;;;;5.20;4.80;;;;;;;29.37;47.06;99533.46;104338;1260;69670;-60
2023/05/27 07:19:46;;;;;;;5.30;4.90;;;;;;;29.45;46.42;99534.06;104579;1257;72362;-62
2023/05/27 07:22:16;;;;;;;5.40;4.90;;;;;;;29.59;46.70;99536.81;104609;1256;60614;-61
2023/05/27 07:24:44;;;;;;;;;;;;;;;29.74;46.35;99536.30;104440;1256;60075;-60
2023/05/27 07:27:12;;;;;;;6.30;4.90;;;;;;;29.84;44.67;99534.83;108008;1251;73346;-60
2023/05/27 07:29:44;;;;;;;6.10;5.50;;;;;;;29.86;45.41;99534.44;106008;1254;69192;-59
2023/05/27 07:32:12;;;;;;;5.00;4.60;;;;;;;29.91;45.26;99535.10;104789;1256;72384;-60
2023/05/27 15:51:47;;;;;;;3.50;3.20;;;;;;;34.21;32.81;99437.92;101383;1299;603872;-62
2023/05/27 15:54:15;;;;;;;3.40;3.10;;;;;;;34.95;31.27;99439.78;103621;1268;59856;-61
2023/05/27 15:56:44;;;;;;;4.90;3.90;;;;;;;35.01;29.63;99442.00;103532;1267;59687;-64
2023/05/27 15:59:11;;;;;;;4.30;3.30;;;;;;;35.02;29.83;99447.27;104007;1259;71960;-62
2023/05/27 16:01:39;;;;;;;3.40;3.20;;;;;;;34.92;30.27;99451.36;103971;1264;68962;-63
2023/05/27 16:04:07;;;;;;;3.60;3.20;;;;;;;34.72;30.01;99454.79;103965;1264;73428;-63
2023/05/27 16:06:35;;;;;;;4.10;3.30;;;;;;;34.49;29.95;99456.24;103777;1264;364777;-64
2023/05/27 16:09:02;;;;;;;;;;;;;;;34.22;30.27;99461.83;104411;1261;60100;-64
2023/05/27 16:11:30;;;;;;;3.00;2.70;;;;;;;34.01;29.76;99461.03;104477;1258;71853;-64
2023/05/27 16:13:58;;;;;;;3.50;3.10;;;;;;;33.77;29.72;99462.38;104269;1257;69049;-62
2023/05/27 16:16:26;;;;;;;;;;;;;;;33.49;29.46;99465.90;104169;1264;72356;-64
2023/05/27 16:18:53;;;;;;;3.90;2.70;;;;;;;33.14;29.53;99469.73;104105;1263;59765;-63
2023/05/27 16:21:21;;;;;;;;;;;;;;;32.87;30.94;99468.40;104294;1257;60071;-62
2023/05/27 16:23:49;;;;;;;3.30;3.00;;;;;;;32.55;30.77;99474.48;104272;1266;73174;-62
2023/05/27 16:26:33;;;;;;;5.60;2.70;;;;;;;32.33;30.64;99475.13;104180;1257;69489;-62
2023/05/27 16:29:01;;;;;;;3.50;3.10;;;;;;;32.13;31.15;99476.16;106585;1257;72908;-62
2023/05/27 16:31:30;;;;;;;;;;;;;;;31.95;31.25;99478.06;107236;1257;60170;-62
2023/05/27 16:33:59;;;;;;;4.60;2.90;;;;;;;31.76;31.92;99483.61;104023;1264;59760;-61
2023/05/27 16:36:27;;;;;;;4.20;3.00;;;;;;;31.53;31.74;99483.49;104772;1257;71810;-61
2023/05/27 16:38:55;;;;;;;3.50;3.30;;;;;;;31.28;32.06;99482.81;104753;1264;70115;-60
2023/05/27 16:41:23;;;;;;;4.70;3.20;;;;;;;31.08;32.00;99486.45;105124;1260;72458;-60
2023/05/27 16:43:50;;;;;;;5.20;3.40;;;;;;;30.91;31.97;99488.80;104003;1263;59864;-61
2023/05/27 16:46:18;;;;;;;7.00;3.00;;;;;;;30.76;32.19;99491.46;103953;1257;59865;-61
2023/05/27 16:48:47;;;;;;;5.50;3.30;;;;;;;30.64;32.25;99491.23;104296;1260;73232;-60
2023/05/27 16:51:15;;;;;;;4.30;3.60;;;;;;;30.38;32.29;99493.10;104220;1264;69219;-62
2023/05/27 16:53:43;;;;;;;3.10;2.90;;;;;;;30.19;32.98;99500.17;104282;1257;72501;-62
2023/05/27 16:56:10;;;;;;;3.20;3.00;;;;;;;30.03;32.78;99504.45;104346;1257;59787;-61
2023/05/27 16:58:38;;;;;;;4.40;3.10;;;;;;;29.80;32.09;99507.00;104199;1258;59802;-61
2023/05/27 17:01:06;;;;;;;;;;;;;;;29.66;32.13;99507.40;104390;1273;72894;-62
2023/05/27 17:03:34;;;;;;;4.00;2.60;;;;;;;29.63;31.99;99509.63;104348;1261;69024;-61
2023/05/27 17:06:02;;;;;;;3.10;2.80;;;;;;;29.49;31.89;99515.01;104060;1257;73337;-62
2023/05/27 17:08:29;;;;;;;;;;;;;;;29.41;32.00;99520.34;104104;1267;59788;-61
2023/05/27 17:10:57;;;;;;;3.40;2.50;;;;;;;29.34;31.78;99522.39;104303;1257;59665;-62
2023/05/27 17:13:25;;;;;;;3.90;2.70;;;;;;;29.20;32.15;99532.16;104088;1258;72808;-66
2023/05/27 17:15:54;;;;;;;3.30;2.90;;;;;;;29.15;32.09;99531.65;104241;1257;69557;-61
2023/05/27 17:18:22;;;;;;;5.80;3.40;;;;;;;29.10;32.19;99532.74;104216;1270;72914;-60
2023/05/27 17:20:49;;;;;;;;;;;;;;;29.07;31.89;99537.23;104561;1257;59902;-62
2023/05/27 17:23:17;;;;;;;6.10;3.90;;;;;;;29.03;31.96;99540.30;103963;1260;60386;-61
2023/05/27 17:25:45;;;;;;;;;;;;;;;28.93;31.90;99541.30;104200;1258;72891;-60
2023/05/27 17:28:13;;;;;;;6.20;3.80;;;;;;;28.84;31.95;99540.87;105732;1257;69059;-64
2023/05/27 17:30:41;;;;;;;4.40;3.40;;;;;;;28.66;32.30;99545.24;107670;1257;73334;-64
2023/05/27 17:33:09;;;;;;;4.00;3.20;;;;;;;28.63;31.92;99548.05;105497;1257;60804;-61
2023/05/27 17:35:37;;;;;;;;;;;;;;;28.59;32.11;99553.20;104695;1263;59746;-62
2023/05/27 17:38:04;;;;;;;;;;;;;;;28.58;32.10;99557.84;104346;1262;72893;-62
2023/05/27 17:40:32;;;;;;;3.50;2.70;;;;;;;28.54;32.07;99556.49;104819;1260;69189;-62
2023/05/27 17:43:00;;;;;;;6.40;3.10;;;;;;;28.35;32.25;99559.04;104442;1257;72347;-61
2023/05/27 17:45:27;;;;;;;6.50;2.90;;;;;;;28.26;31.86;99558.01;104263;1257;60498;-61
2023/05/27 17:47:55;;;;;;;4.90;2.80;;;;;;;28.22;31.95;99556.86;104125;1274;59770;-62
2023/05/27 17:50:23;;;;;;;;;;;;;;;28.21;31.93;99553.89;104074;1263;72813;-59
2023/05/27 17:52:51;;;;;;;3.00;2.70;;;;;;;28.10;31.80;99552.15;104409;1259;70037;-64
2023/05/27 17:55:18;;;;;;;;;;;;;;;27.99;31.43;99557.96;104057;1258;72559;-61
2023/05/27 17:57:48;;;;;;;3.20;2.70;;;;;;;27.94;31.50;99558.84;104295;1260;59811;-63
2023/05/27 18:00:15;;;;;;;3.90;2.70;;;;;;;27.83;31.69;99562.66;104305;1257;59811;-61
2023/05/27 18:02:43;;;;;;;5.10;2.60;;;;;;;27.71;31.37;99561.66;104295;1261;73641;-62
2023/05/27 18:05:11;;;;;;;;;;;;;;;27.65;31.11;99570.14;104046;1263;69308;-61
2023/05/27 18:07:40;;;;;;;5.60;2.50;;;;;;;27.62;31.38;99574.79;104036;1257;71456;-60
2023/05/27 18:10:08;;;;;;;2.70;2.50;;;;;;;27.48;30.63;99583.30;104412;1256;59845;-60
2023/05/27 18:12:36;;;;;;;3.50;2.80;;;;;;;27.43;30.62;99586.66;104305;1260;59807;-60
2023/05/27 18:15:04;;;;;;;2.70;2.50;;;;;;;27.41;30.74;99591.09;104007;1263;73673;-60
2023/05/27 18:17:32;;;;;;;3.50;2.40;;;;;;;27.36;30.42;99602.79;104236;1258;69216;-60
2023/05/27 18:20:00;;;;;;;3.20;2.70;;;;;;;27.42;29.98;99605.06;104267;1266;72438;-60
2023/05/27 18:22:27;;;;;;;4.10;2.60;;;;;;;27.43;29.97;99608.83;104434;1257;60462;-60
2023/05/27 18:24:55;;;;;;;4.00;2.70;;;;;;;27.37;30.30;99609.50;104480;1263;60087;-60
2023/05/27 18:27:23;;;;;;;3.00;2.80;;;;;;;27.32;29.88;99613.29;105897;1257;73659;-62
2023/05/27 18:29:51;;;;;;;2.70;2.50;;;;;;;27.27;29.75;99616.30;106735;1254;69115;-61
2023/05/27 18:32:20;;;;;;;;;;;;;;;27.25;29.94;99620.27;107666;1254;72308;-63
2023/05/27 18:34:47;;;;;;;3.60;2.60;;;;;;;27.24;29.74;99624.11;104803;1260;59785;-61
2023/05/27 18:37:15;;;;;;;5.80;2.60;;;;;;;27.19;29.76;99627.52;105385;1254;60087;-61
2023/05/27 18:39:43;;;;;;;;;;;;;;;27.20;29.55;99631.94;105405;1257;73386;-59
2023/05/27 18:42:10;;;;;;;;;;;;;;;27.18;29.31;99632.52;105082;1261;70005;-62
2023/05/27 18:44:38;;;;;;;3.60;2.20;;;;;;;27.13;29.45;99636.64;104620;1257;72361;-61
2023/05/27 18:47:06;;;;;;;3.10;2.70;;;;;;;27.08;29.77;99637.97;104600;1256;60296;-60
2023/05/27 18:49:33;;;;;;;5.30;2.30;;;;;;;27.03;29.70;99640.38;104539;1257;60666;-60
2023/05/27 18:52:01;;;;;;;4.10;2.60;;;;;;;27.00;29.98;99641.23;104305;1260;73686;-61
2023/05/27 18:54:29;;;;;;;3.40;2.90;;;;;;;26.98;29.70;99639.38;104291;1260;69264;-60
2023/05/27 18:56:57;;;;;;;3.80;2.30;;;;;;;26.95;29.58;99641.33;104315;1254;72308;-60
2023/05/27 18:59:24;;;;;;;3.40;2.80;;;;;;;26.93;29.77;99643.73;104234;1255;59826;-60
2023/05/27 19:01:52;;;;;;;4.60;2.60;;;;;;;26.94;29.77;99645.95;104375;1259;59787;-61
2023/05/27 19:04:22;;;;;;;;;;;;;;;26.86;30.13;99651.16;104325;1276;72787;-60
2023/05/27 19:06:50;;;;;;;2.70;2.50;;;;;;;26.80;29.83;99649.48;104384;1264;69581;-60
2023/05/27 19:09:18;;;;;;;3.90;2.80;;;;;;;26.76;29.93;99648.91;104303;1259;72476;-60
2023/05/27 19:11:46;;;;;;;;;;;;;;;26.72;30.08;99650.06;104448;1254;59772;-60
2023/05/27 19:14:14;;;;;;;4.50;2.30;;;;;;;26.66;29.89;99651.97;104575;1253;60440;-60
2023/05/27 19:16:42;;;;;;;2.50;2.30;;;;;;;26.58;30.10;99653.39;104727;1257;73047;-60
2023/05/27 19:19:10;;;;;;;2.50;2.30;;;;;;;26.51;30.05;99653.91;104437;1253;69073;-61
2023/05/27 19:21:37;;;;;;;;;;;;;;;26.45;30.70;99654.42;104413;1254;73376;-61
2023/05/27 19:24:05;;;;;;;;;;;;;;;26.40;30.33;99650.86;104854;1254;59772;-60
2023/05/27 19:26:32;;;;;;;;;;;;;;;26.31;30.57;99652.56;104410;1268;59846;-61
2023/05/27 19:29:00;;;;;;;3.90;2.20;;;;;;;26.17;30.58;99657.84;105298;1253;72899;-60
2023/05/27 19:31:28;;;;;;;2.60;2.10;;;;;;;26.01;30.50;99652.90;108363;1252;69173;-61
2023/05/27 19:33:56;;;;;;;2.80;2.00;;;;;;;25.94;30.69;99657.22;106254;1264;72576;-61
2023/05/27 19:36:23;;;;;;;2.60;2.40;;;;;;;25.89;30.17;99665.66;104654;1259;60087;-60
2023/05/27 19:38:51;;;;;;;2.80;2.40;;;;;;;25.77;30.42;99662.80;104558;1258;59867;-64
2023/05/27 19:41:19;;;;;;;;;;;;;;;25.68;30.52;99660.54;104417;1261;73794;-60
2023/05/27 19:43:47;;;;;;;;;;;;;;;25.62;30.45;99662.73;104589;1252;69593;-60
2023/05/27 19:46:14;;;;;;;2.40;2.00;;;;;;;25.55;30.61;99664.77;104479;1253;72863;-60
2023/05/27 19:48:42;;;;;;;3.30;2.30;;;;;;;25.44;30.92;99668.38;104468;1254;59859;-60
2023/05/27 19:51:10;;;;;;;3.50;2.30;;;;;;;25.36;30.90;99668.52;104339;1254;59806;-60
2023/05/27 19:53:40;;;;;;;2.90;2.30;;;;;;;25.28;30.65;99670.98;104374;1268;73087;-61
2023/05/27 19:56:08;;;;;;;5.70;2.00;;;;;;;25.24;30.57;99669.52;104365;1254;69021;-60
2023/05/27 19:58:36;;;;;;;;;;;;;;;25.22;30.81;99673.51;104313;1258;72472;-60
2023/05/27 20:01:03;;;;;;;;;;;;;;;25.18;30.31;99670.57;104370;1261;60571;-60
2023/05/27 20:03:31;;;;;;;2.80;1.90;;;;;;;25.11;30.32;99673.22;104466;1253;60492;-60
2023/05/27 20:06:00;;;;;;;2.50;2.10;;;;;;;25.06;31.00;99676.58;104258;1254;73715;-60
2023/05/27 20:08:28;;;;;;;2.40;2.00;;;;;;;24.98;31.15;99674.04;104387;1272;69405;-60
2023/05/27 20:10:56;;;;;;;2.00;1.80;;;;;;;24.90;31.49;99675.25;104380;1254;72360;-60
2023/05/27 20:13:24;;;;;;;2.90;2.00;;;;;;;24.81;31.30;99672.17;104612;1254;60559;-61
2023/05/27 20:15:52;;;;;;;2.70;2.40;;;;;;;24.74;31.19;99674.88;104344;1252;60445;-61
2023/05/27 20:18:20;;;;;;;2.70;2.40;;;;;;;24.67;31.42;99673.76;104337;1266;74091;-61
2023/05/27 20:20:48;;;;;;;4.70;2.00;;;;;;;24.53;31.36;99680.41;104438;1263;69510;-66
2023/05/27 20:23:15;;;;;;;2.70;2.50;;;;;;;24.46;31.60;99680.48;104227;1255;71738;-61
2023/05/27 20:25:44;;;;;;;2.40;2.20;;;;;;;24.35;31.39;99676.80;104367;1257;60296;-62
2023/05/27 20:28:12;;;;;;;2.40;2.20;;;;;;;24.28;31.48;99681.01;104301;1252;60533;-61
2023/05/27 20:30:40;;;;;;;2.30;1.70;;;;;;;24.27;31.61;99681.16;106189;1253;73689;-60
2023/05/27 20:33:07;;;;;;;4.40;2.10;;;;;;;24.24;31.30;99682.91;108447;1253;69443;-60
2023/05/27 20:35:35;;;;;;;2.20;1.90;;;;;;;24.21;31.63;99687.28;104363;1275;73181;-62
2023/05/27 20:38:03;;;;;;;5.10;2.00;;;;;;;24.15;31.62;99689.66;104487;1257;60561;-62
2023/05/27 20:40:31;;;;;;;2.60;2.40;;;;;;;24.10;31.47;99692.73;104594;1254;60508;-59
2023/05/27 20:42:58;;;;;;;;;;;;;;;24.06;31.69;99687.12;104440;1257;73764;-62
2023/05/27 20:45:26;;;;;;;;;;;;;;;24.03;31.61;99685.91;104488;1257;69733;-62
2023/05/27 20:47:53;;;;;;;;;;;;;;;23.95;32.06;99682.70;104341;1254;71632;-61
2023/05/27 20:50:21;;;;;;;;;;;;;;;23.86;31.86;99685.75;104429;1256;60722;-60
2023/05/27 20:52:49;;;;;;;2.00;1.80;;;;;;;23.77;32.29;99683.52;104301;1254;60574;-59
2023/05/27 20:55:17;;;;;;;3.70;2.10;;;;;;;23.65;31.92;99685.91;104295;1257;73715;-61
2023/05/27 20:57:46;;;;;;;2.30;2.10;;;;;;;23.62;32.17;99682.45;104438;1269;69025;-61
2023/05/27 21:00:15;;;;;;;3.50;2.20;;;;;;;23.80;32.03;99680.21;104369;1254;72608;-62
2023/05/27 21:02:42;;;;;;;2.90;2.30;;;;;;;23.83;32.01;99681.73;104422;1253;60457;-61
2023/05/27 21:05:13;;;;;;;2.40;2.20;;;;;;;23.83;32.29;99682.30;104341;1254;60536;-61
2023/05/27 21:07:41;;;;;;;8.80;2.70;;;;;;;23.79;32.31;99682.31;104350;1254;74297;-61
2023/05/27 21:10:09;;;;;;;4.10;2.30;;;;;;;23.77;32.32;99685.23;104436;1257;69219;-61
2023/05/27 21:12:37;;;;;;;3.20;2.30;;;;;;;23.75;32.63;99680.02;104276;1263;72747;-61
2023/05/27 21:15:05;;;;;;;;;;;;;;;23.68;32.50;99681.66;104395;1258;60538;-61
2023/05/27 21:17:33;;;;;;;2.90;2.20;;;;;;;23.68;32.62;99684.95;104513;1253;60562;-61
2023/05/27 21:20:01;;;;;;;2.30;2.10;;;;;;;23.58;33.10;99682.70;104300;1254;74020;-61
2023/05/27 21:22:29;;;;;;;6.60;2.80;;;;;;;23.60;32.76;99680.35;104338;1257;69380;-62
2023/05/27 21:24:57;;;;;;;5.60;2.60;;;;;;;23.66;32.81;99681.90;104302;1258;72834;-62
2023/05/27 21:27:24;;;;;;;;;;;;;;;23.70;32.85;99683.84;104371;1253;60869;-61
2023/05/27 21:29:53;;;;;;;5.60;2.60;;;;;;;23.69;32.85;99685.73;104388;1254;60537;-61
2023/05/27 21:32:22;;;;;;;3.20;2.20;;;;;;;23.63;33.13;99686.86;104622;1254;73617;-61
2023/05/27 21:34:50;;;;;;;3.90;2.40;;;;;;;23.64;33.15;99690.22;104321;1254;69441;-61
2023/05/27 21:37:18;;;;;;;2.90;2.10;;;;;;;23.58;33.53;99694.67;104335;1257;73832;-61
2023/05/27 21:39:45;;;;;;;;;;;;;;;23.58;33.33;99694.88;104459;1254;60596;-62
2023/05/27 21:42:14;;;;;;;3.90;2.70;;;;;;;23.53;33.50;99690.89;104278;1257;60530;-61
2023/05/27 21:44:42;;;;;;;2.90;2.30;;;;;;;23.48;33.50;99685.57;104343;1263;74149;-59
2023/05/27 21:47:10;;;;;;;2.60;2.40;;;;;;;23.45;33.87;99688.41;104910;1252;69561;-60
2023/05/27 21:49:37;;;;;;;;;;;;;;;23.45;34.03;99690.17;108461;1252;72355;-63
2023/05/27 21:52:05;;;;;;;5.90;2.20;;;;;;;23.41;33.90;99691.48;104831;1253;60534;-60
2023/05/27 21:54:33;;;;;;;3.90;2.50;;;;;;;23.30;34.23;99690.35;104517;1253;60562;-61
2023/05/27 21:57:00;;;;;;;4.80;2.10;;;;;;;23.27;34.39;99694.43;104473;1253;74355;-61
2023/05/27 21:59:28;;;;;;;2.30;2.10;;;;;;;23.24;34.58;99695.02;104338;1260;69240;-61
2023/05/27 22:01:56;;;;;;;;;;;;;;;23.19;34.59;99695.92;104402;1263;71453;-60
2023/05/27 22:04:23;;;;;;;2.60;2.20;;;;;;;23.18;34.97;99696.31;104385;1260;60657;-60
2023/05/27 22:06:51;;;;;;;3.20;2.20;;;;;;;23.12;34.85;99698.36;104460;1253;60559;-60
2023/05/27 22:09:18;;;;;;;3.10;2.10;;;;;;;23.06;35.02;99704.48;104287;1260;73580;-60
2023/05/27 22:11:46;;;;;;;4.30;2.10;;;;;;;23.06;35.35;99707.66;104408;1254;69340;-59
2023/05/27 22:14:14;;;;;;;5.70;2.20;;;;;;;23.08;35.12;99707.66;104295;1269;72217;-59
2023/05/27 22:16:42;;;;;;;3.10;2.00;;;;;;;23.01;35.47;99709.04;104407;1254;60799;-61
2023/05/27 22:19:10;;;;;;;5.30;2.30;;;;;;;22.95;35.05;99713.64;104295;1254;59860;-62
2023/05/27 22:21:37;;;;;;;4.00;2.10;;;;;;;22.94;35.23;99709.84;104298;1253;73666;-61
2023/05/27 22:24:05;;;;;;;;;;;;;;;22.90;35.73;99710.38;104331;1256;69134;-61
2023/05/27 22:26:36;;;;;;;;;;;;;;;22.88;35.83;99716.27;104271;1256;72503;-59
2023/05/27 22:29:04;;;;;;;2.30;1.90;;;;;;;22.80;35.96;99708.11;104417;1258;60530;-59
2023/05/27 22:31:32;;;;;;;4.40;2.20;;;;;;;22.69;36.04;99704.44;104449;1254;60457;-59
2023/05/27 22:34:00;;;;;;;4.80;2.20;;;;;;;22.69;35.99;99710.39;108342;1252;73583;-60
2023/05/27 22:36:27;;;;;;;4.80;2.10;;;;;;;22.68;36.13;99714.44;104821;1256;68322;-60
2023/05/27 22:38:55;;;;;;;3.70;1.80;;;;;;;22.65;36.27;99718.75;104532;1257;73493;-59
2023/05/27 22:41:23;;;;;;;4.70;2.40;;;;;;;22.66;36.29;99722.59;104766;1257;60312;-60
2023/05/27 22:43:50;;;;;;;3.50;2.00;;;;;;;22.65;36.26;99717.00;104703;1254;60562;-60
2023/05/27 22:46:18;;;;;;;4.70;2.30;;;;;;;22.62;36.83;99719.77;104528;1253;73605;-59
2023/05/27 22:48:46;;;;;;;4.40;2.10;;;;;;;22.60;36.73;99720.16;104269;1253;69155;-58
2023/05/27 22:51:14;;;;;;;6.10;2.20;;;;;;;22.59;36.54;99720.75;104406;1259;72664;-60
2023/05/27 22:53:42;;;;;;;5.50;2.40;;;;;;;22.52;36.83;99719.73;104346;1253;60955;-62
2023/05/27 22:56:14;;;;;;;4.20;1.90;;;;;;;22.48;37.13;99721.00;104388;1257;60113;-59
2023/05/27 22:58:42;;;;;;;3.20;1.90;;;;;;;22.49;36.93;99718.66;104270;1254;73753;-58
2023/05/27 23:01:09;;;;;;;4.70;2.00;;;;;;;22.49;36.94;99724.47;104458;1270;69049;-60
2023/05/27 23:03:37;;;;;;;5.20;2.10;;;;;;;22.47;37.10;99720.61;104260;1254;72507;-60
2023/05/27 23:06:05;;;;;;;;;;;;;;;22.38;37.47;99722.15;104307;1255;60531;-59
2023/05/27 23:08:33;;;;;;;6.20;2.00;;;;;;;22.34;37.78;99721.98;104302;1254;60555;-59
2023/05/27 23:11:00;;;;;;;2.00;1.80;;;;;;;22.23;37.93;99725.38;104354;1257;73740;-59
2023/05/27 23:13:28;;;;;;;4.80;2.40;;;;;;;22.21;37.66;99724.55;104332;1257;70085;-60
2023/05/27 23:15:57;;;;;;;;;;;;;;;22.16;37.78;99725.14;104285;1252;73335;-60
2023/05/27 23:18:25;;;;;;;5.40;1.90;;;;;;;22.14;38.20;99726.59;104408;1254;60507;-60
2023/05/27 23:20:53;;;;;;;3.40;1.90;;;;;;;22.05;38.07;99728.83;104405;1257;61081;-60
2023/05/27 23:23:20;;;;;;;2.90;2.20;;;;;;;21.98;38.39;99730.52;104266;1257;74446;-60
2023/05/27 23:25:48;;;;;;;5.00;2.40;;;;;;;21.93;38.63;99730.07;104391;1267;69038;-60
2023/05/27 23:28:16;;;;;;;6.90;2.10;;;;;;;21.89;38.89;99735.55;104324;1254;71488;-60
2023/05/27 23:30:44;;;;;;;4.20;2.00;;;;;;;21.86;38.56;99734.23;105136;1253;60584;-61
2023/05/27 23:33:11;;;;;;;;;;;;;;;21.87;38.63;99731.84;108409;1253;60078;-61